createdAt,value
2023-02-12T00:01:17.601Z,32.55
2023-02-12T00:03:45.955Z,31.33
2023-02-12T00:06:16.188Z,31.90
2023-02-12T00:08:45.158Z,33.03
2023-02-12T00:11:14.550Z,31.50
2023-02-12T00:13:42.913Z,33.42
2023-02-12T00:16:12.700Z,34.08
2023-02-12T00:18:48.207Z,33.30
2023-02-12T00:21:18.215Z,34.15
2023-02-12T00:23:46.912Z,33.92
2023-02-12T00:26:16.134Z,33.42
2023-02-12T00:28:44.447Z,34.67
2023-02-12T00:31:18.341Z,31.55
2023-02-12T00:33:46.728Z,33.15
2023-02-12T00:36:16.169Z,33.63
2023-02-12T00:38:46.056Z,33.47
2023-02-12T00:41:14.724Z,36.17
2023-02-12T00:43:43.378Z,35.80
2023-02-12T00:46:11.892Z,30.13
2023-02-12T00:48:40.318Z,33.38
2023-02-12T00:51:09.096Z,34.53
2023-02-12T00:53:37.483Z,35.70
2023-02-12T00:56:07.462Z,35.67
2023-02-12T00:58:35.797Z,33.58
2023-02-12T01:01:04.251Z,32.42
2023-02-12T01:03:32.531Z,35.28
2023-02-12T01:06:00.871Z,33.42
2023-02-12T01:08:30.204Z,35.35
2023-02-12T01:10:59.146Z,35.30
2023-02-12T01:13:30.371Z,38.05
2023-02-12T01:16:06.806Z,34.72
2023-02-12T01:18:35.449Z,36.65
2023-02-12T01:21:03.766Z,34.53
2023-02-12T01:23:32.049Z,34.03
2023-02-12T01:26:00.772Z,36.95
2023-02-12T01:28:30.907Z,36.47
2023-02-12T01:30:59.297Z,34.38
2023-02-12T01:33:27.616Z,35.67
2023-02-12T01:35:56.195Z,34.20
2023-02-12T01:38:24.659Z,37.42
2023-02-12T01:40:53.020Z,38.05
2023-02-12T01:43:21.337Z,35.40
2023-02-12T01:45:53.741Z,34.22
2023-02-12T01:48:23.604Z,38.38
2023-02-12T01:50:53.040Z,39.28
2023-02-12T01:53:22.326Z,39.20
2023-02-12T01:55:51.759Z,40.42
2023-02-12T01:58:20.750Z,40.45
2023-02-12T02:00:49.166Z,38.80
2023-02-12T02:03:18.895Z,39.20
2023-02-12T02:05:49.676Z,37.55
2023-02-12T02:08:18.383Z,38.22
2023-02-12T02:10:46.739Z,33.65
2023-02-12T02:13:32.689Z,32.15
2023-02-12T02:16:02.199Z,28.55
2023-02-12T02:18:35.105Z,32.45
2023-02-12T02:21:14.977Z,32.83
2023-02-12T02:24:00.915Z,30.63
2023-02-12T02:26:50.069Z,32.33
2023-02-12T02:29:40.755Z,31.90
2023-02-12T02:32:12.780Z,33.80
2023-02-12T02:34:45.396Z,29.70
2023-02-12T02:37:16.496Z,27.27
2023-02-12T02:39:46.672Z,25.38
2023-02-12T02:42:18.129Z,28.20
2023-02-12T02:44:50.793Z,30.25
2023-02-12T02:47:22.981Z,28.52
2023-02-12T02:49:53.688Z,27.90
2023-02-12T02:52:24.449Z,29.55
2023-02-12T02:54:55.527Z,28.45
2023-02-12T02:57:26.745Z,28.33
2023-02-12T02:59:57.498Z,32.22
2023-02-12T03:02:28.220Z,28.23
2023-02-12T03:04:57.339Z,28.27
2023-02-12T03:07:28.728Z,28.80
2023-02-12T03:09:59.629Z,30.92
2023-02-12T03:12:31.350Z,30.67
2023-02-12T03:15:02.031Z,30.33
2023-02-12T03:17:33.694Z,27.50
2023-02-12T03:20:04.134Z,32.40
2023-02-12T03:22:33.624Z,26.38
2023-02-12T03:25:05.719Z,28.45
2023-02-12T03:27:35.528Z,31.25
2023-02-12T03:30:04.680Z,29.35
2023-02-12T03:32:37.367Z,32.60
2023-02-12T03:35:10.608Z,28.15
2023-02-12T03:37:41.277Z,31.40
2023-02-12T03:40:14.488Z,32.83
2023-02-12T03:42:47.422Z,40.42
2023-02-12T03:45:21.232Z,43.97
2023-02-12T03:50:19.953Z,41.45
2023-02-12T03:52:48.947Z,38.28
2023-02-12T03:55:17.510Z,42.83
2023-02-12T03:57:47.060Z,39.33
2023-02-12T04:00:17.524Z,41.05
2023-02-12T04:02:45.999Z,37.67
2023-02-12T04:05:23.119Z,39.22
2023-02-12T04:07:51.809Z,38.00
2023-02-12T04:10:20.670Z,36.80
2023-02-12T04:12:54.127Z,35.33
2023-02-12T04:15:32.293Z,35.60
2023-02-12T04:18:03.986Z,40.95
2023-02-12T04:20:39.286Z,43.22
2023-02-12T04:23:11.948Z,41.58
2023-02-12T04:25:51.876Z,34.90
2023-02-12T04:28:27.362Z,36.28
2023-02-12T04:30:59.228Z,34.95
2023-02-12T04:33:30.386Z,33.53
2023-02-12T04:36:03.364Z,32.50
2023-02-12T04:38:33.984Z,35.08
2023-02-12T04:41:02.320Z,35.92
2023-02-12T04:43:31.355Z,36.38
2023-02-12T04:45:59.689Z,36.67
2023-02-12T04:48:28.144Z,35.03
2023-02-12T04:50:56.440Z,29.90
2023-02-12T04:53:26.107Z,32.72
2023-02-12T04:55:55.527Z,30.65
2023-02-12T04:58:23.979Z,29.70
2023-02-12T05:00:52.283Z,29.10
2023-02-12T05:03:20.606Z,32.17
2023-02-12T05:05:48.904Z,32.78
2023-02-12T05:08:17.223Z,30.33
2023-02-12T05:10:46.882Z,29.55
2023-02-12T05:13:15.197Z,29.83
2023-02-12T05:15:43.509Z,31.60
2023-02-12T05:18:12.232Z,29.70
2023-02-12T05:20:40.540Z,32.10
2023-02-12T05:23:08.848Z,31.42
2023-02-12T05:25:37.718Z,30.92
2023-02-12T05:28:07.536Z,30.90
2023-02-12T05:30:35.880Z,32.80
2023-02-12T05:33:04.165Z,32.08
2023-02-12T05:35:32.460Z,31.30
2023-02-12T05:38:00.822Z,29.90
2023-02-12T05:40:29.143Z,30.08
2023-02-12T05:42:57.468Z,30.50
2023-02-12T05:45:28.098Z,30.42
2023-02-12T05:47:56.790Z,30.20
2023-02-12T05:50:25.339Z,28.60
2023-02-12T05:52:53.674Z,29.60
2023-02-12T05:55:21.983Z,28.30
2023-02-12T05:57:50.286Z,27.92
2023-02-12T06:00:18.805Z,29.85
2023-02-12T06:02:48.590Z,31.55
2023-02-12T06:05:17.033Z,30.30
2023-02-12T06:07:45.326Z,29.40
2023-02-12T06:10:13.712Z,28.77
2023-02-12T06:12:42.001Z,33.60
2023-02-12T06:15:10.724Z,30.63
2023-02-12T06:17:39.035Z,33.88
2023-02-12T06:20:09.027Z,30.52
2023-02-12T06:22:38.307Z,32.90
2023-02-12T06:25:07.001Z,37.95
2023-02-12T06:27:35.283Z,35.45
2023-02-12T06:30:03.627Z,30.88
2023-02-12T06:32:31.925Z,30.83
2023-02-12T06:35:00.262Z,32.38
2023-02-12T06:37:29.954Z,33.95
2023-02-12T06:39:58.257Z,33.45
2023-02-12T06:42:26.646Z,33.70
2023-02-12T06:44:54.925Z,33.92
2023-02-12T06:47:23.185Z,30.98
2023-02-12T06:49:51.495Z,31.75
2023-02-12T06:52:21.207Z,36.67
2023-02-12T06:54:50.936Z,36.60
2023-02-12T06:57:19.225Z,34.60
2023-02-12T06:59:47.509Z,30.83
2023-02-12T07:02:15.833Z,32.03
2023-02-12T07:04:44.168Z,32.78
2023-02-12T07:07:12.481Z,29.67
2023-02-12T07:09:40.809Z,30.33
2023-02-12T07:12:10.568Z,32.95
2023-02-12T07:14:38.982Z,34.42
2023-02-12T07:17:08.700Z,38.50
2023-02-12T07:19:36.997Z,40.28
2023-02-12T07:22:05.635Z,37.25
2023-02-12T07:24:33.937Z,39.97
2023-02-12T07:27:02.214Z,43.42
2023-02-12T07:29:31.870Z,41.38
2023-02-12T07:32:00.791Z,40.83
2023-02-12T07:34:29.188Z,42.00
2023-02-12T07:36:57.472Z,42.05
2023-02-12T07:39:25.777Z,39.88
2023-02-12T07:41:54.057Z,37.85
2023-02-12T07:44:22.356Z,41.28
2023-02-12T07:46:51.992Z,40.08
2023-02-12T07:49:21.486Z,39.28
2023-02-12T07:51:49.956Z,42.55
2023-02-12T07:54:18.401Z,47.35
2023-02-12T07:56:47.754Z,44.30
2023-02-12T07:59:26.371Z,41.67
2023-02-12T08:02:06.751Z,50.45
2023-02-12T08:04:37.936Z,53.60
2023-02-12T08:07:09.394Z,39.25
2023-02-12T08:12:26.462Z,43.10
2023-02-12T08:14:59.159Z,45.83
2023-02-12T08:17:28.870Z,43.60
2023-02-12T08:20:03.074Z,41.88
2023-02-12T08:22:46.345Z,39.63
2023-02-12T08:25:21.508Z,43.10
2023-02-12T08:27:52.564Z,46.78
2023-02-12T08:30:23.768Z,50.13
2023-02-12T08:32:57.626Z,64.88
2023-02-12T08:37:59.913Z,67.55
2023-02-12T08:40:34.164Z,52.60
2023-02-12T08:43:05.409Z,45.17
2023-02-12T08:45:36.965Z,42.85
2023-02-12T08:48:10.816Z,53.58
2023-02-12T08:53:10.072Z,40.83
2023-02-12T08:55:38.399Z,41.28
2023-02-12T08:58:06.685Z,43.50
2023-02-12T09:00:34.994Z,45.75
2023-02-12T09:03:03.284Z,40.45
2023-02-12T09:05:32.954Z,50.35
2023-02-12T09:08:01.268Z,47.80
2023-02-12T09:10:29.562Z,48.55
2023-02-12T09:12:57.869Z,45.03
2023-02-12T09:15:26.157Z,46.53
2023-02-12T09:17:54.421Z,42.80
2023-02-12T09:20:22.740Z,42.95
2023-02-12T09:22:54.027Z,41.15
2023-02-12T09:25:22.323Z,39.72
2023-02-12T09:27:50.661Z,45.10
2023-02-12T09:30:19.188Z,46.35
2023-02-12T09:32:47.521Z,46.63
2023-02-12T09:35:15.842Z,48.30
2023-02-12T09:37:44.880Z,44.92
2023-02-12T09:40:20.064Z,48.80
2023-02-12T09:43:03.917Z,45.20
2023-02-12T09:45:34.924Z,43.15
2023-02-12T09:48:11.169Z,41.08
2023-02-12T09:50:44.866Z,42.50
2023-02-12T09:53:14.371Z,42.92
2023-02-12T09:55:46.052Z,43.72
2023-02-12T09:58:21.265Z,45.50
2023-02-12T10:00:49.589Z,44.78
2023-02-12T10:03:19.234Z,44.00
2023-02-12T10:05:49.947Z,47.63
2023-02-12T10:08:31.213Z,46.10
2023-02-12T10:11:11.770Z,41.60
2023-02-12T10:13:42.900Z,40.28
2023-02-12T10:16:14.575Z,43.17
2023-02-12T10:18:51.916Z,45.53
2023-02-12T10:21:26.124Z,44.85
2023-02-12T10:24:02.668Z,46.33
2023-02-12T10:26:33.704Z,40.63
2023-02-12T10:29:07.652Z,39.65
2023-02-12T10:31:38.430Z,43.40
2023-02-12T10:34:14.527Z,38.38
2023-02-12T10:36:44.385Z,42.67
2023-02-12T10:39:16.023Z,51.08
2023-02-12T10:41:49.212Z,45.95
2023-02-12T10:44:17.595Z,49.15
2023-02-12T10:46:53.210Z,45.58
2023-02-12T10:49:21.910Z,40.97
2023-02-12T10:52:05.716Z,45.17
2023-02-12T10:54:35.794Z,43.00
2023-02-12T10:57:10.551Z,42.45
2023-02-12T10:59:38.905Z,39.50
2023-02-12T11:02:19.074Z,43.33
2023-02-12T11:04:47.198Z,38.53
2023-02-12T11:07:15.272Z,36.97
2023-02-12T11:09:49.297Z,44.10
2023-02-12T11:12:31.627Z,42.60
2023-02-12T11:15:02.094Z,41.05
2023-02-12T11:17:37.524Z,36.80
2023-02-12T11:20:22.472Z,40.33
2023-02-12T11:22:52.684Z,38.38
2023-02-12T11:25:21.697Z,39.40
2023-02-12T11:28:03.628Z,39.20
2023-02-12T11:30:31.899Z,36.88
2023-02-12T11:33:18.452Z,37.47
2023-02-12T11:35:52.445Z,39.38
2023-02-12T11:38:26.186Z,32.72
2023-02-12T11:40:59.854Z,36.80
2023-02-12T11:43:31.516Z,36.03
2023-02-12T11:46:04.179Z,35.55
2023-02-12T11:48:36.045Z,33.77
2023-02-12T11:51:06.753Z,38.22
2023-02-12T11:53:36.911Z,33.97
2023-02-12T11:56:09.718Z,39.88
2023-02-12T11:58:39.621Z,38.85
2023-02-12T12:01:12.903Z,37.40
2023-02-12T12:03:56.718Z,34.95
2023-02-12T12:06:27.703Z,33.92
2023-02-12T12:09:02.834Z,37.67
2023-02-12T12:11:38.219Z,35.67
2023-02-12T12:14:16.553Z,36.80
2023-02-12T12:17:10.039Z,35.05
2023-02-12T12:19:56.355Z,43.80
2023-02-12T12:22:43.470Z,37.80
2023-02-12T12:25:22.719Z,36.47
2023-02-12T12:28:18.310Z,35.90
2023-02-12T12:31:02.797Z,33.53
2023-02-12T12:33:45.921Z,36.95
2023-02-12T12:36:47.171Z,36.38
2023-02-12T12:39:30.819Z,35.13
2023-02-12T12:42:36.741Z,31.17
2023-02-12T12:45:22.876Z,32.70
2023-02-12T12:48:06.426Z,30.65
2023-02-12T12:50:56.080Z,30.33
2023-02-12T12:53:37.709Z,24.17
2023-02-12T12:56:25.456Z,27.42
2023-02-12T12:59:10.090Z,27.95
2023-02-12T13:01:55.606Z,25.08
2023-02-12T13:05:08.676Z,25.27
2023-02-12T13:07:50.025Z,25.63
2023-02-12T13:10:34.451Z,23.38
2023-02-12T13:13:10.419Z,23.73
2023-02-12T13:15:44.371Z,29.00
2023-02-12T13:18:23.974Z,24.48
2023-02-12T13:21:01.608Z,23.92
2023-02-12T13:23:39.952Z,21.80
2023-02-12T13:26:15.409Z,19.27
2023-02-12T13:28:46.694Z,15.73
2023-02-12T13:31:32.462Z,18.35
2023-02-12T13:34:03.820Z,13.38
2023-02-12T13:36:34.428Z,15.25
2023-02-12T13:39:10.242Z,16.48
2023-02-12T13:41:39.400Z,16.73
2023-02-12T13:44:15.684Z,19.23
2023-02-12T13:46:54.452Z,15.55
2023-02-12T13:49:40.940Z,16.35
2023-02-12T13:52:19.751Z,13.05
2023-02-12T13:54:58.612Z,17.02
2023-02-12T13:57:26.682Z,14.52
2023-02-12T13:59:55.261Z,12.73
2023-02-12T14:02:49.585Z,14.70
2023-02-12T14:08:00.207Z,10.38
2023-02-12T14:10:32.004Z,9.55
2023-02-12T14:13:14.057Z,9.30
2023-02-12T14:15:45.573Z,9.70
2023-02-12T14:18:35.429Z,8.23
2023-02-12T14:21:45.626Z,7.07
2023-02-12T14:24:52.655Z,8.85
2023-02-12T14:27:36.595Z,9.90
2023-02-12T14:30:34.975Z,10.30
2023-02-12T14:33:25.745Z,11.15
2023-02-12T14:36:17.389Z,11.68
2023-02-12T14:39:01.721Z,13.95
2023-02-12T14:41:37.645Z,13.05
2023-02-12T14:44:46.703Z,13.85
2023-02-12T14:47:56.441Z,12.25
2023-02-12T14:50:39.965Z,13.55
2023-02-12T14:53:27.964Z,10.35
2023-02-12T14:55:59.668Z,15.35
2023-02-12T14:58:30.783Z,17.27
2023-02-12T15:01:02.351Z,15.40
2023-02-12T15:03:39.695Z,14.40
2023-02-12T15:06:17.893Z,15.15
2023-02-12T15:08:50.525Z,16.15
2023-02-12T15:11:29.591Z,15.40
2023-02-12T15:14:02.456Z,17.25
2023-02-12T15:16:42.921Z,15.40
2023-02-12T15:19:22.342Z,21.42
2023-02-12T15:21:55.700Z,24.65
2023-02-12T15:24:26.068Z,19.02
2023-02-12T15:26:57.523Z,18.38
2023-02-12T15:29:28.487Z,19.48
2023-02-12T15:31:58.788Z,18.60
2023-02-12T15:34:31.585Z,18.40
2023-02-12T15:37:03.505Z,18.83
2023-02-12T15:39:40.145Z,18.60
2023-02-12T15:42:23.319Z,18.60
2023-02-12T15:45:02.662Z,15.57
2023-02-12T15:47:34.736Z,16.90
2023-02-12T15:50:03.362Z,14.27
2023-02-12T15:52:36.238Z,10.25
2023-02-12T15:55:06.289Z,12.47
2023-02-12T15:57:38.292Z,11.18
2023-02-12T16:00:10.343Z,11.68
2023-02-12T16:02:41.471Z,14.55
2023-02-12T16:05:21.315Z,12.38
2023-02-12T16:07:51.837Z,9.93
2023-02-12T16:10:21.807Z,10.32
2023-02-12T16:12:51.322Z,12.38
2023-02-12T16:15:26.331Z,15.07
2023-02-12T16:17:54.545Z,16.30
2023-02-12T16:20:27.158Z,15.07
2023-02-12T16:22:57.111Z,15.43
2023-02-12T16:25:27.874Z,18.27
2023-02-12T16:28:00.686Z,17.77
2023-02-12T16:30:31.669Z,19.60
2023-02-12T16:33:00.148Z,18.35
2023-02-12T16:35:32.291Z,21.17
2023-02-12T16:38:05.044Z,18.90
2023-02-12T16:40:36.877Z,17.98
2023-02-12T16:43:31.980Z,16.92
2023-02-12T16:46:07.208Z,16.63
2023-02-12T16:48:40.346Z,17.83
2023-02-12T16:51:23.127Z,19.88
2023-02-12T16:53:53.951Z,17.23
2023-02-12T16:56:23.413Z,20.10
2023-02-12T16:58:54.611Z,18.98
2023-02-12T17:01:25.886Z,19.65
2023-02-12T17:03:55.019Z,22.13
2023-02-12T17:06:24.803Z,24.20
2023-02-12T17:08:54.347Z,20.85
2023-02-12T17:11:24.118Z,24.17
2023-02-12T17:13:54.237Z,19.85
2023-02-12T17:16:30.942Z,23.95
2023-02-12T17:18:59.814Z,23.20
2023-02-12T17:21:32.114Z,20.30
2023-02-12T17:24:01.418Z,20.35
2023-02-12T17:26:29.351Z,23.40
2023-02-12T17:29:05.160Z,19.77
2023-02-12T17:31:33.653Z,24.60
2023-02-12T17:34:01.957Z,21.63
2023-02-12T17:36:30.229Z,20.98
2023-02-12T17:38:58.483Z,22.88
2023-02-12T17:41:28.232Z,23.17
2023-02-12T17:43:56.499Z,24.00
2023-02-12T17:46:27.373Z,21.77
2023-02-12T17:48:55.695Z,21.10
2023-02-12T17:51:23.976Z,24.48
2023-02-12T17:53:51.957Z,24.17
2023-02-12T17:56:22.554Z,26.10
2023-02-12T17:58:52.374Z,25.88
2023-02-12T18:01:23.004Z,26.35
2023-02-12T18:03:54.593Z,26.80
2023-02-12T18:06:25.737Z,27.23
2023-02-12T18:08:54.246Z,26.00
2023-02-12T18:11:25.362Z,26.52
2023-02-12T18:13:56.685Z,25.52
2023-02-12T18:16:27.476Z,27.10
2023-02-12T18:18:57.435Z,27.55
2023-02-12T18:21:25.380Z,22.90
2023-02-12T18:23:54.698Z,21.67
2023-02-12T18:26:23.537Z,22.35
2023-02-12T18:28:58.547Z,22.35
2023-02-12T18:31:26.820Z,21.13
2023-02-12T18:33:58.140Z,17.35
2023-02-12T18:36:26.200Z,18.33
2023-02-12T18:38:55.235Z,18.15
2023-02-12T18:41:25.360Z,21.23
2023-02-12T18:43:55.859Z,24.38
2023-02-12T18:46:25.491Z,21.02
2023-02-12T18:48:55.829Z,20.95
2023-02-12T18:51:27.023Z,22.67
2023-02-12T18:53:56.721Z,24.20
2023-02-12T18:56:24.821Z,27.42
2023-02-12T18:58:57.672Z,30.98
2023-02-12T19:01:26.259Z,38.25
2023-02-12T19:03:58.868Z,31.52
2023-02-12T19:06:27.712Z,26.73
2023-02-12T19:08:57.044Z,34.67
2023-02-12T19:11:26.308Z,31.17
2023-02-12T19:13:55.991Z,36.15
2023-02-12T19:16:27.121Z,35.83
2023-02-12T19:18:56.236Z,32.80
2023-02-12T19:21:26.316Z,24.08
2023-02-12T19:23:57.466Z,23.90
2023-02-12T19:26:26.122Z,22.88
2023-02-12T19:28:54.785Z,26.95
2023-02-12T19:31:26.378Z,23.00
2023-02-12T19:33:57.150Z,23.65
2023-02-12T19:36:26.295Z,24.58
2023-02-12T19:38:54.617Z,22.00
2023-02-12T19:41:24.578Z,24.85
2023-02-12T19:43:55.827Z,22.42
2023-02-12T19:46:26.676Z,22.25
2023-02-12T19:48:56.374Z,24.48
2023-02-12T19:51:26.047Z,21.13
2023-02-12T19:53:56.126Z,20.27
2023-02-12T19:56:24.419Z,21.88
2023-02-12T19:58:52.802Z,25.17
2023-02-12T20:01:21.963Z,24.02
2023-02-12T20:03:51.726Z,23.70
2023-02-12T20:06:21.923Z,20.98
2023-02-12T20:08:50.227Z,20.85
2023-02-12T20:11:19.289Z,19.23
2023-02-12T20:13:47.832Z,18.48
2023-02-12T20:16:17.010Z,18.52
2023-02-12T20:18:46.264Z,17.25
2023-02-12T20:21:17.844Z,16.17
2023-02-12T20:23:46.219Z,18.15
2023-02-12T20:26:15.181Z,17.25
2023-02-12T20:28:43.816Z,15.10
2023-02-12T20:31:13.918Z,15.45
2023-02-12T20:33:42.720Z,16.80
2023-02-12T20:36:12.352Z,16.63
2023-02-12T20:38:42.058Z,16.48
2023-02-12T20:41:10.789Z,16.50
2023-02-12T20:43:39.587Z,17.15
2023-02-12T20:46:08.699Z,17.42
2023-02-12T20:48:37.836Z,18.42
2023-02-12T20:51:06.712Z,16.13
2023-02-12T20:53:35.206Z,20.55
2023-02-12T20:56:12.197Z,20.83
2023-02-12T20:58:44.544Z,23.30
2023-02-12T21:01:13.992Z,20.45
2023-02-12T21:03:43.798Z,22.13
2023-02-12T21:06:15.396Z,23.13
2023-02-12T21:08:46.528Z,22.88
2023-02-12T21:11:20.658Z,21.90
2023-02-12T21:13:58.837Z,18.35
2023-02-12T21:16:32.005Z,18.55
2023-02-12T21:19:03.125Z,17.83
2023-02-12T21:21:34.339Z,19.73
2023-02-12T21:24:04.925Z,21.75
2023-02-12T21:26:40.767Z,20.25
2023-02-12T21:29:11.091Z,21.55
2023-02-12T21:31:42.529Z,24.33
2023-02-12T21:34:15.596Z,21.90
2023-02-12T21:36:46.258Z,23.43
2023-02-12T21:39:15.692Z,24.02
2023-02-12T21:41:45.655Z,26.00
2023-02-12T21:44:14.985Z,24.13
2023-02-12T21:46:43.602Z,22.30
2023-02-12T21:49:13.608Z,23.50
2023-02-12T21:51:42.972Z,23.80
2023-02-12T21:54:12.056Z,23.70
2023-02-12T21:56:40.720Z,22.20
2023-02-12T21:59:10.826Z,19.45
2023-02-12T22:01:40.052Z,20.42
2023-02-12T22:04:08.767Z,21.20
2023-02-12T22:06:38.588Z,19.67
2023-02-12T22:09:07.885Z,20.35
2023-02-12T22:11:50.538Z,23.40
2023-02-12T22:14:20.656Z,23.60
2023-02-12T22:16:49.259Z,22.30
2023-02-12T22:19:17.601Z,27.67
2023-02-12T22:21:45.939Z,31.15
2023-02-12T22:24:15.930Z,35.78
2023-02-12T22:26:44.959Z,39.88
2023-02-12T22:29:17.036Z,35.58
2023-02-12T22:31:47.433Z,31.35
2023-02-12T22:34:17.562Z,25.23
2023-02-12T22:36:46.343Z,24.10
2023-02-12T22:39:15.408Z,24.98
2023-02-12T22:41:43.799Z,23.42
2023-02-12T22:44:12.846Z,23.77
2023-02-12T22:46:41.208Z,25.92
2023-02-12T22:49:10.875Z,28.02
2023-02-12T22:51:39.789Z,25.13
2023-02-12T22:54:08.640Z,25.02
2023-02-12T22:56:37.088Z,27.20
2023-02-12T22:59:05.384Z,28.05
2023-02-12T23:01:33.790Z,26.75
2023-02-12T23:04:02.170Z,26.75
2023-02-12T23:06:32.502Z,30.77
2023-02-12T23:09:01.761Z,29.65
2023-02-12T23:11:31.010Z,28.05
2023-02-12T23:13:59.317Z,27.88
2023-02-12T23:16:27.741Z,31.45
2023-02-12T23:18:56.846Z,30.70
2023-02-12T23:21:26.027Z,28.60
2023-02-12T23:23:56.000Z,32.40
2023-02-12T23:26:27.847Z,29.33
2023-02-12T23:28:56.321Z,35.53
2023-02-12T23:31:25.232Z,50.85
2023-02-12T23:33:53.705Z,38.35
2023-02-12T23:36:22.050Z,37.90
2023-02-12T23:38:50.340Z,34.05
2023-02-12T23:41:20.038Z,31.80
2023-02-12T23:43:48.328Z,30.75
2023-02-12T23:46:16.727Z,35.80
2023-02-12T23:48:45.508Z,28.83
2023-02-12T23:51:18.910Z,33.22
2023-02-12T23:53:47.251Z,30.75
2023-02-12T23:56:20.072Z,28.38
2023-02-12T23:58:50.059Z,27.30
